createdAt,value
2019-03-22T00:02:03.136Z,47.83
2019-03-22T00:04:29.473Z,47.67
2019-03-22T00:06:55.808Z,47.74
2019-03-22T00:09:21.717Z,47.96
2019-03-22T00:11:47.750Z,47.83
2019-03-22T00:14:13.601Z,48.09
2019-03-22T00:16:39.689Z,48.06
2019-03-22T00:19:05.817Z,48.30
2019-03-22T00:21:31.789Z,50.36
2019-03-22T00:23:57.909Z,50.55
2019-03-22T00:26:23.952Z,50.10
2019-03-22T00:28:50.302Z,49.10
2019-03-22T00:31:16.639Z,49.25
2019-03-22T00:33:42.984Z,49.08
2019-03-22T00:36:08.910Z,49.38
2019-03-22T00:38:34.927Z,49.22
2019-03-22T00:41:00.725Z,49.02
2019-03-22T00:43:26.757Z,49.33
2019-03-22T00:45:52.615Z,49.59
2019-03-22T00:48:18.748Z,49.64
2019-03-22T00:50:44.895Z,49.72
2019-03-22T00:53:11.116Z,50.15
2019-03-22T00:55:37.111Z,49.85
2019-03-22T00:58:03.118Z,50.57
2019-03-22T01:00:29.347Z,50.21
2019-03-22T01:02:55.659Z,50.31
2019-03-22T01:05:21.737Z,50.33
2019-03-22T01:07:48.059Z,50.36
2019-03-22T01:10:14.296Z,50.31
2019-03-22T01:12:40.469Z,50.03
2019-03-22T01:15:08.923Z,50.47
2019-03-22T01:17:35.307Z,50.92
2019-03-22T01:20:02.953Z,51.00
2019-03-22T01:22:28.923Z,51.66
2019-03-22T01:24:55.019Z,52.11
2019-03-22T01:27:21.153Z,51.86
2019-03-22T01:29:47.532Z,52.10
2019-03-22T01:32:13.376Z,51.64
2019-03-22T01:34:39.574Z,51.68
2019-03-22T01:37:05.447Z,51.94
2019-03-22T01:39:31.652Z,51.68
2019-03-22T01:41:57.861Z,51.71
2019-03-22T01:44:23.866Z,52.10
2019-03-22T01:46:50.372Z,51.88
2019-03-22T01:49:16.739Z,51.47
2019-03-22T01:51:43.173Z,51.87
2019-03-22T01:54:09.085Z,51.99
2019-03-22T01:56:35.165Z,52.11
2019-03-22T01:59:01.127Z,51.55
2019-03-22T02:01:27.371Z,51.35
2019-03-22T02:03:53.684Z,51.80
2019-03-22T02:06:19.805Z,51.44
2019-03-22T02:08:45.859Z,51.66
2019-03-22T02:11:11.945Z,51.82
2019-03-22T02:13:38.065Z,51.52
2019-03-22T02:16:04.325Z,51.50
2019-03-22T02:18:30.457Z,51.88
2019-03-22T02:20:56.251Z,51.74
2019-03-22T02:23:22.337Z,52.01
2019-03-22T02:25:48.527Z,51.87
2019-03-22T02:28:15.040Z,51.86
2019-03-22T02:30:41.284Z,52.15
2019-03-22T02:33:07.476Z,52.18
2019-03-22T02:35:33.662Z,51.77
2019-03-22T02:37:59.431Z,51.90
2019-03-22T02:40:25.955Z,51.56
2019-03-22T02:42:52.053Z,51.43
2019-03-22T02:45:18.140Z,51.52
2019-03-22T02:47:43.954Z,51.90
2019-03-22T02:50:17.959Z,51.72
2019-03-22T02:52:39.596Z,51.73
2019-03-22T02:55:06.810Z,51.71
2019-03-22T02:57:32.849Z,51.61
2019-03-22T02:59:58.898Z,51.93
2019-03-22T03:02:25.069Z,52.17
2019-03-22T03:04:51.072Z,52.28
2019-03-22T03:07:17.153Z,52.42
2019-03-22T03:09:42.956Z,52.27
2019-03-22T03:12:08.973Z,52.23
2019-03-22T03:14:35.098Z,51.40
2019-03-22T03:17:01.328Z,51.37
2019-03-22T03:19:27.670Z,51.75
2019-03-22T03:21:57.062Z,50.94
2019-03-22T03:24:29.813Z,51.44
2019-03-22T03:26:56.073Z,51.78
2019-03-22T03:29:22.116Z,52.08
2019-03-22T03:31:48.460Z,52.49
2019-03-22T03:34:14.441Z,52.78
2019-03-22T03:36:40.414Z,53.10
2019-03-22T03:39:07.319Z,52.17
2019-03-22T03:41:33.659Z,53.08
2019-03-22T03:43:59.620Z,52.94
2019-03-22T03:46:25.871Z,52.69
2019-03-22T03:48:51.881Z,53.20
2019-03-22T03:51:18.180Z,52.93
2019-03-22T03:53:44.142Z,53.18
2019-03-22T03:56:10.330Z,53.14
2019-03-22T03:58:51.231Z,53.35
2019-03-22T04:01:04.526Z,53.55
2019-03-22T04:03:30.655Z,53.87
2019-03-22T04:05:56.604Z,53.26
2019-03-22T04:08:22.823Z,53.53
2019-03-22T04:10:48.758Z,53.57
2019-03-22T04:13:15.058Z,53.37
2019-03-22T04:15:41.337Z,53.84
2019-03-22T04:18:07.184Z,53.69
2019-03-22T04:20:33.323Z,53.58
2019-03-22T04:22:59.436Z,53.76
2019-03-22T04:25:25.393Z,54.38
2019-03-22T04:27:52.418Z,54.51
2019-03-22T04:30:18.427Z,54.33
2019-03-22T04:32:44.770Z,54.38
2019-03-22T04:35:11.160Z,54.16
2019-03-22T04:37:37.419Z,54.94
2019-03-22T04:40:07.394Z,54.92
2019-03-22T04:42:33.223Z,54.73
2019-03-22T04:44:59.285Z,54.81
2019-03-22T04:47:26.276Z,54.90
2019-03-22T04:49:52.765Z,55.12
2019-03-22T04:52:22.454Z,54.36
2019-03-22T04:54:52.352Z,54.85
2019-03-22T04:57:20.991Z,55.32
2019-03-22T04:59:47.259Z,55.34
2019-03-22T05:02:13.802Z,55.34
2019-03-22T05:04:43.887Z,55.65
2019-03-22T05:07:10.497Z,55.54
2019-03-22T05:09:36.767Z,56.11
2019-03-22T05:12:03.343Z,56.26
2019-03-22T05:14:33.116Z,56.44
2019-03-22T05:17:00.278Z,56.77
2019-03-22T05:19:29.587Z,56.13
2019-03-22T05:21:57.189Z,56.20
2019-03-22T05:24:24.364Z,56.86
2019-03-22T05:26:52.276Z,56.76
2019-03-22T05:29:30.271Z,57.13
2019-03-22T05:32:09.111Z,56.73
2019-03-22T05:34:35.212Z,57.07
2019-03-22T05:37:01.195Z,57.59
2019-03-22T05:39:27.528Z,57.06
2019-03-22T05:41:53.901Z,57.99
2019-03-22T05:44:20.436Z,57.50
2019-03-22T05:46:48.894Z,57.81
2019-03-22T05:49:14.779Z,58.08
2019-03-22T05:51:40.627Z,58.09
2019-03-22T05:54:07.094Z,58.83
2019-03-22T05:56:32.902Z,58.72
2019-03-22T05:58:58.900Z,58.03
2019-03-22T06:01:25.178Z,58.11
2019-03-22T06:03:51.978Z,57.97
2019-03-22T06:06:18.219Z,57.51
2019-03-22T06:08:44.489Z,57.54
2019-03-22T06:11:10.940Z,56.87
2019-03-22T06:13:37.066Z,56.40
2019-03-22T06:16:03.020Z,56.74
2019-03-22T06:18:29.030Z,57.42
2019-03-22T06:20:55.169Z,57.20
2019-03-22T06:23:21.275Z,56.87
2019-03-22T06:25:47.109Z,56.96
2019-03-22T06:28:13.469Z,56.55
2019-03-22T06:30:39.509Z,56.39
2019-03-22T06:33:05.549Z,55.82
2019-03-22T06:35:31.672Z,56.06
2019-03-22T06:37:57.714Z,55.48
2019-03-22T06:40:23.837Z,55.67
2019-03-22T06:42:49.923Z,55.52
2019-03-22T06:45:15.714Z,55.69
2019-03-22T06:47:41.757Z,54.96
2019-03-22T06:50:08.008Z,55.31
2019-03-22T06:52:34.098Z,55.03
2019-03-22T06:55:02.855Z,54.71
2019-03-22T06:57:28.668Z,54.27
2019-03-22T07:00:05.962Z,54.76
2019-03-22T07:02:23.252Z,54.68
2019-03-22T07:04:49.381Z,54.08
2019-03-22T07:07:15.333Z,53.94
2019-03-22T07:09:41.448Z,53.82
2019-03-22T07:12:07.658Z,53.93
2019-03-22T07:14:33.823Z,53.79
2019-03-22T07:16:59.830Z,53.56
2019-03-22T07:19:25.959Z,54.24
2019-03-22T07:21:52.067Z,53.27
2019-03-22T07:24:18.172Z,51.60
2019-03-22T07:26:43.966Z,52.55
2019-03-22T07:29:10.052Z,52.66
2019-03-22T07:31:36.093Z,52.47
2019-03-22T07:34:02.164Z,51.91
2019-03-22T07:36:28.425Z,51.26
2019-03-22T07:38:54.554Z,52.67
2019-03-22T07:41:20.646Z,51.79
2019-03-22T07:43:46.827Z,51.92
2019-03-22T07:46:13.005Z,50.94
2019-03-22T07:48:39.084Z,51.55
2019-03-22T07:51:05.172Z,50.56
2019-03-22T07:53:31.319Z,50.53
2019-03-22T07:55:57.508Z,50.73
2019-03-22T07:58:23.607Z,51.77
2019-03-22T08:00:49.495Z,50.84
2019-03-22T08:03:15.595Z,51.29
2019-03-22T08:05:50.978Z,50.39
2019-03-22T08:08:09.677Z,49.97
2019-03-22T08:10:35.461Z,49.28
2019-03-22T08:13:02.139Z,48.40
2019-03-22T08:15:29.749Z,49.72
2019-03-22T08:17:57.219Z,46.79
2019-03-22T08:20:23.512Z,47.68
2019-03-22T08:22:49.766Z,46.98
2019-03-22T08:25:16.100Z,46.42
2019-03-22T08:27:42.423Z,44.57
2019-03-22T08:30:09.604Z,43.64
2019-03-22T08:32:35.633Z,43.22
2019-03-22T08:35:02.051Z,40.61
2019-03-22T08:37:31.186Z,40.57
2019-03-22T08:39:57.351Z,38.90
2019-03-22T08:42:23.451Z,38.62
2019-03-22T08:44:49.756Z,37.88
2019-03-22T08:47:15.826Z,36.00
2019-03-22T08:49:42.083Z,35.65
2019-03-22T08:52:08.535Z,33.66
2019-03-22T08:54:34.620Z,34.09
2019-03-22T08:57:00.692Z,33.33
2019-03-22T08:59:26.715Z,31.42
2019-03-22T09:01:52.481Z,29.85
2019-03-22T09:04:18.525Z,27.91
2019-03-22T09:06:44.656Z,23.87
2019-03-22T09:09:10.710Z,20.58
2019-03-22T09:11:36.932Z,18.21
2019-03-22T09:14:03.528Z,19.29
2019-03-22T09:16:30.927Z,17.06
2019-03-22T09:18:56.998Z,14.35
2019-03-22T09:21:23.205Z,14.02
2019-03-22T09:23:49.265Z,14.79
2019-03-22T09:26:15.240Z,12.85
2019-03-22T09:28:41.350Z,12.64
2019-03-22T09:31:11.019Z,15.49
2019-03-22T09:33:37.158Z,14.40
2019-03-22T09:36:03.319Z,14.75
2019-03-22T09:38:29.530Z,16.22
2019-03-22T09:40:55.813Z,14.04
2019-03-22T09:43:21.823Z,15.17
2019-03-22T09:45:47.888Z,14.59
2019-03-22T09:48:13.818Z,14.97
2019-03-22T09:50:39.910Z,12.85
2019-03-22T09:53:05.995Z,12.08
2019-03-22T09:55:32.081Z,14.06
2019-03-22T09:57:58.175Z,13.26
2019-03-22T10:00:31.951Z,11.99
2019-03-22T10:02:59.078Z,10.57
2019-03-22T10:05:25.098Z,10.29
2019-03-22T10:07:51.477Z,13.22
2019-03-22T10:10:17.412Z,12.43
2019-03-22T10:12:43.739Z,11.48
2019-03-22T10:15:10.312Z,12.24
2019-03-22T10:17:36.370Z,10.51
2019-03-22T10:20:04.823Z,10.06
2019-03-22T10:22:30.800Z,12.33
2019-03-22T10:24:57.265Z,12.75
2019-03-22T10:27:23.604Z,12.34
2019-03-22T10:29:49.919Z,12.28
2019-03-22T10:32:16.344Z,9.55
2019-03-22T10:34:42.310Z,10.33
2019-03-22T10:37:08.413Z,13.00
2019-03-22T10:39:34.485Z,11.92
2019-03-22T10:42:00.350Z,11.74
2019-03-22T10:44:26.560Z,11.00
2019-03-22T10:46:52.734Z,12.45
2019-03-22T10:49:18.621Z,13.36
2019-03-22T10:51:56.146Z,11.84
2019-03-22T10:54:12.738Z,8.99
2019-03-22T10:56:38.948Z,11.29
2019-03-22T10:59:05.057Z,9.76
2019-03-22T11:01:31.280Z,8.96
2019-03-22T11:03:57.614Z,7.96
2019-03-22T11:06:26.363Z,8.13
2019-03-22T11:08:51.990Z,9.65
2019-03-22T11:11:18.293Z,13.19
2019-03-22T11:13:44.490Z,11.99
2019-03-22T11:16:10.566Z,12.42
2019-03-22T11:18:37.603Z,23.70
2019-03-22T11:21:05.419Z,29.27
2019-03-22T11:23:31.683Z,30.08
2019-03-22T11:26:04.070Z,30.72
2019-03-22T11:28:25.611Z,30.07
2019-03-22T11:30:51.654Z,30.03
2019-03-22T11:33:17.674Z,30.66
2019-03-22T11:35:43.697Z,30.40
2019-03-22T11:38:09.505Z,30.48
2019-03-22T11:40:35.580Z,29.67
2019-03-22T11:43:08.701Z,29.32
2019-03-22T11:45:29.527Z,29.65
2019-03-22T11:47:56.613Z,30.08
2019-03-22T11:50:23.044Z,29.34
2019-03-22T11:52:49.553Z,27.45
2019-03-22T11:55:15.557Z,28.93
2019-03-22T11:57:41.870Z,28.95
2019-03-22T12:00:14.821Z,28.37
2019-03-22T12:02:40.988Z,28.53
2019-03-22T12:05:08.140Z,28.67
2019-03-22T12:07:33.915Z,29.83
2019-03-22T12:10:00.032Z,29.82
2019-03-22T12:12:25.826Z,28.16
2019-03-22T12:14:51.883Z,27.47
2019-03-22T12:17:18.276Z,29.16
2019-03-22T12:19:44.590Z,28.29
2019-03-22T12:22:10.508Z,26.96
2019-03-22T12:24:36.698Z,28.76
2019-03-22T12:27:02.950Z,28.08
2019-03-22T12:29:28.767Z,28.61
2019-03-22T12:31:55.079Z,28.23
2019-03-22T12:34:21.175Z,30.47
2019-03-22T12:36:47.286Z,28.03
2019-03-22T12:39:13.406Z,27.82
2019-03-22T12:41:39.928Z,27.32
2019-03-22T12:44:06.285Z,29.38
2019-03-22T12:46:32.389Z,29.95
2019-03-22T12:48:58.254Z,26.02
2019-03-22T12:51:24.345Z,26.55
2019-03-22T12:53:50.778Z,25.78
2019-03-22T12:56:16.904Z,25.73
2019-03-22T12:58:43.025Z,25.42
2019-03-22T13:01:27.702Z,27.50
2019-03-22T13:03:53.816Z,26.96
2019-03-22T13:06:19.834Z,27.54
2019-03-22T13:08:45.856Z,26.36
2019-03-22T13:11:11.942Z,26.46
2019-03-22T13:13:37.914Z,28.23
2019-03-22T13:16:03.984Z,26.47
2019-03-22T13:18:29.883Z,26.24
2019-03-22T13:20:55.900Z,26.31
2019-03-22T13:23:21.972Z,26.40
2019-03-22T13:25:47.984Z,25.84
2019-03-22T13:28:15.898Z,25.92
2019-03-22T13:30:41.807Z,27.34
2019-03-22T13:33:07.852Z,26.33
2019-03-22T13:35:34.172Z,27.02
2019-03-22T13:38:00.283Z,26.91
2019-03-22T13:40:26.514Z,27.26
2019-03-22T13:42:52.604Z,26.26
2019-03-22T13:45:18.716Z,27.60
2019-03-22T13:47:44.947Z,27.18
2019-03-22T13:50:11.075Z,27.90
2019-03-22T13:52:37.187Z,27.15
2019-03-22T13:55:04.971Z,29.15
2019-03-22T13:57:31.461Z,27.45
2019-03-22T13:59:57.671Z,28.40
2019-03-22T14:02:23.809Z,28.01
2019-03-22T14:04:50.031Z,28.04
2019-03-22T14:07:16.154Z,28.61
2019-03-22T14:09:42.113Z,27.46
2019-03-22T14:12:09.329Z,28.11
2019-03-22T14:14:38.074Z,27.88
2019-03-22T14:17:03.862Z,27.33
2019-03-22T14:19:29.891Z,28.72
2019-03-22T14:21:56.138Z,28.72
2019-03-22T14:24:22.243Z,29.24
2019-03-22T14:26:48.259Z,27.36
2019-03-22T14:29:14.419Z,27.60
2019-03-22T14:31:40.573Z,27.10
2019-03-22T14:34:06.568Z,26.91
2019-03-22T14:36:32.930Z,26.68
2019-03-22T14:38:58.719Z,27.08
2019-03-22T14:41:24.702Z,26.96
2019-03-22T14:43:50.752Z,26.91
2019-03-22T14:46:16.899Z,26.96
2019-03-22T14:48:43.041Z,26.63
2019-03-22T14:51:09.093Z,27.06
2019-03-22T14:53:34.893Z,26.66
2019-03-22T14:56:00.873Z,27.65
2019-03-22T14:58:27.017Z,27.21
2019-03-22T15:00:52.817Z,27.02
2019-03-22T15:03:25.839Z,27.69
2019-03-22T15:05:53.066Z,27.31
2019-03-22T15:08:19.681Z,26.78
2019-03-22T15:10:45.725Z,27.27
2019-03-22T15:13:12.001Z,27.09
2019-03-22T15:15:57.915Z,27.29
2019-03-22T15:18:31.977Z,26.97
2019-03-22T15:21:12.081Z,27.05
2019-03-22T15:23:39.810Z,27.19
2019-03-22T15:26:22.593Z,27.21
2019-03-22T15:29:08.617Z,26.85
2019-03-22T15:31:42.151Z,26.86
2019-03-22T15:34:27.916Z,26.59
2019-03-22T15:37:04.958Z,26.29
2019-03-22T15:39:38.971Z,26.27
2019-03-22T15:42:04.802Z,26.33
2019-03-22T15:44:31.095Z,26.39
2019-03-22T15:46:56.886Z,26.14
2019-03-22T15:49:22.832Z,26.48
2019-03-22T15:51:49.047Z,26.75
2019-03-22T15:54:15.005Z,26.87
2019-03-22T15:56:41.232Z,27.23
2019-03-22T15:59:07.368Z,27.21
2019-03-22T16:01:34.390Z,27.49
2019-03-22T16:04:00.585Z,27.13
2019-03-22T16:06:26.738Z,27.12
2019-03-22T16:08:52.794Z,27.17
2019-03-22T16:11:18.703Z,27.25
2019-03-22T16:13:44.711Z,27.17
2019-03-22T16:16:10.705Z,27.62
2019-03-22T16:18:36.792Z,27.16
2019-03-22T16:21:03.194Z,27.72
2019-03-22T16:23:29.187Z,27.19
2019-03-22T16:25:55.337Z,27.29
2019-03-22T16:28:21.487Z,27.19
2019-03-22T16:30:47.822Z,27.29
2019-03-22T16:33:13.625Z,27.33
2019-03-22T16:35:39.712Z,27.10
2019-03-22T16:38:05.859Z,28.06
2019-03-22T16:40:31.958Z,28.48
2019-03-22T16:42:58.700Z,29.12
2019-03-22T16:45:40.961Z,29.66
2019-03-22T16:48:06.755Z,28.76
2019-03-22T16:50:32.881Z,29.64
2019-03-22T16:52:59.005Z,29.53
2019-03-22T16:55:25.075Z,29.58
2019-03-22T16:57:50.927Z,30.06
2019-03-22T17:00:18.684Z,30.21
2019-03-22T17:02:45.023Z,30.45
2019-03-22T17:05:12.291Z,31.25
2019-03-22T17:07:38.324Z,31.37
2019-03-22T17:10:05.775Z,32.23
2019-03-22T17:12:31.653Z,32.67
2019-03-22T17:14:57.853Z,33.01
2019-03-22T17:17:23.817Z,33.83
2019-03-22T17:19:49.894Z,34.12
2019-03-22T17:22:16.079Z,33.98
2019-03-22T17:24:42.310Z,34.34
2019-03-22T17:27:08.412Z,33.76
2019-03-22T17:29:34.557Z,32.89
2019-03-22T17:32:00.709Z,33.26
2019-03-22T17:34:26.803Z,32.47
2019-03-22T17:36:52.755Z,33.77
2019-03-22T17:39:19.120Z,33.82
2019-03-22T17:41:45.218Z,34.71
2019-03-22T17:44:11.026Z,35.03
2019-03-22T17:46:37.214Z,34.15
2019-03-22T17:49:03.344Z,34.06
2019-03-22T17:51:30.284Z,34.42
2019-03-22T17:53:56.460Z,35.01
2019-03-22T17:56:22.544Z,34.43
2019-03-22T17:58:48.574Z,35.43
2019-03-22T18:01:14.656Z,35.19
2019-03-22T18:03:40.698Z,35.39
2019-03-22T18:06:08.566Z,36.37
2019-03-22T18:08:37.205Z,36.01
2019-03-22T18:11:03.246Z,35.99
2019-03-22T18:13:29.680Z,35.46
2019-03-22T18:15:55.785Z,34.94
2019-03-22T18:18:22.143Z,34.64
2019-03-22T18:20:48.113Z,35.83
2019-03-22T18:23:14.601Z,37.51
2019-03-22T18:25:40.697Z,37.51
2019-03-22T18:28:06.519Z,38.54
2019-03-22T18:30:32.624Z,44.79
2019-03-22T18:32:58.872Z,47.61
2019-03-22T18:35:25.049Z,47.56
2019-03-22T18:37:51.232Z,48.67
2019-03-22T18:40:17.352Z,48.47
2019-03-22T18:42:43.466Z,49.23
2019-03-22T18:45:11.396Z,49.09
2019-03-22T18:47:37.422Z,49.60
2019-03-22T18:50:06.266Z,49.17
2019-03-22T18:52:32.114Z,49.81
2019-03-22T18:54:58.134Z,48.52
2019-03-22T18:57:24.242Z,49.12
2019-03-22T18:59:50.343Z,49.24
2019-03-22T19:02:17.969Z,50.16
2019-03-22T19:04:44.543Z,50.34
2019-03-22T19:07:10.719Z,50.11
2019-03-22T19:09:36.930Z,50.10
2019-03-22T19:12:03.100Z,50.00
2019-03-22T19:14:29.461Z,50.61
2019-03-22T19:16:55.577Z,50.35
2019-03-22T19:19:21.642Z,50.52
2019-03-22T19:21:47.499Z,50.67
2019-03-22T19:24:13.667Z,49.45
2019-03-22T19:26:39.710Z,48.90
2019-03-22T19:29:05.797Z,50.66
2019-03-22T19:31:31.810Z,50.22
2019-03-22T19:33:57.670Z,49.97
2019-03-22T19:36:23.850Z,50.24
2019-03-22T19:38:49.795Z,49.73
2019-03-22T19:41:15.767Z,49.54
2019-03-22T19:43:41.573Z,49.53
2019-03-22T19:46:07.730Z,51.91
2019-03-22T19:48:33.822Z,49.78
2019-03-22T19:50:59.928Z,50.53
2019-03-22T19:53:26.448Z,51.14
2019-03-22T19:55:52.282Z,50.87
2019-03-22T19:58:18.332Z,51.11
2019-03-22T20:00:44.432Z,51.56
2019-03-22T20:03:10.276Z,52.49
2019-03-22T20:05:36.510Z,51.58
2019-03-22T20:08:02.812Z,51.45
2019-03-22T20:10:29.260Z,51.19
2019-03-22T20:12:55.371Z,51.82
2019-03-22T20:15:21.573Z,51.89
2019-03-22T20:17:47.526Z,51.48
2019-03-22T20:20:13.866Z,51.39
2019-03-22T20:22:39.677Z,50.58
2019-03-22T20:25:07.641Z,50.66
2019-03-22T20:27:33.665Z,50.74
2019-03-22T20:29:59.865Z,51.78
2019-03-22T20:32:25.868Z,51.33
2019-03-22T20:34:51.896Z,51.29
2019-03-22T20:37:18.039Z,51.47
2019-03-22T20:39:44.537Z,51.88
2019-03-22T20:42:10.527Z,50.51
2019-03-22T20:44:36.789Z,50.33
2019-03-22T20:47:03.029Z,50.82
2019-03-22T20:49:29.177Z,51.32
2019-03-22T20:51:55.641Z,52.22
2019-03-22T20:54:21.500Z,49.58
2019-03-22T20:56:47.588Z,51.03
2019-03-22T20:59:13.529Z,51.21
2019-03-22T21:01:39.629Z,51.78
2019-03-22T21:04:05.474Z,51.97
2019-03-22T21:06:31.538Z,51.90
2019-03-22T21:08:57.360Z,52.01
2019-03-22T21:11:23.401Z,50.96
2019-03-22T21:13:49.316Z,51.49
2019-03-22T21:16:15.375Z,50.44
2019-03-22T21:18:41.490Z,48.86
2019-03-22T21:21:07.358Z,51.15
2019-03-22T21:23:36.534Z,51.20
2019-03-22T21:26:01.414Z,49.57
2019-03-22T21:28:27.523Z,51.74
2019-03-22T21:30:53.692Z,51.23
2019-03-22T21:33:19.943Z,51.75
2019-03-22T21:35:46.397Z,51.33
2019-03-22T21:38:12.519Z,51.73
2019-03-22T21:40:38.865Z,51.02
2019-03-22T21:43:04.773Z,51.17
2019-03-22T21:45:30.847Z,50.93
2019-03-22T21:47:57.077Z,52.80
2019-03-22T21:50:23.278Z,49.96
2019-03-22T21:52:49.520Z,51.22
2019-03-22T21:55:18.163Z,51.27
2019-03-22T21:57:44.256Z,49.01
2019-03-22T22:00:12.216Z,50.25
2019-03-22T22:02:38.292Z,52.94
2019-03-22T22:05:05.471Z,51.34
2019-03-22T22:07:31.907Z,52.09
2019-03-22T22:09:58.057Z,49.59
2019-03-22T22:12:23.949Z,51.40
2019-03-22T22:14:50.063Z,50.64
2019-03-22T22:17:16.223Z,50.51
2019-03-22T22:19:42.137Z,51.15
2019-03-22T22:22:08.201Z,51.34
2019-03-22T22:24:34.657Z,50.67
2019-03-22T22:27:00.709Z,49.91
2019-03-22T22:29:26.828Z,50.70
2019-03-22T22:31:53.025Z,50.58
2019-03-22T22:34:18.988Z,50.25
2019-03-22T22:36:45.090Z,51.83
2019-03-22T22:39:11.185Z,51.37
2019-03-22T22:41:37.126Z,51.58
2019-03-22T22:44:03.051Z,52.03
2019-03-22T22:46:29.205Z,50.16
2019-03-22T22:48:55.569Z,51.86
2019-03-22T22:51:21.435Z,51.13
2019-03-22T22:53:47.523Z,50.43
2019-03-22T22:56:13.402Z,51.32
2019-03-22T22:58:39.515Z,50.57
2019-03-22T23:01:05.724Z,50.21
2019-03-22T23:03:31.957Z,50.70
2019-03-22T23:06:08.852Z,51.44
2019-03-22T23:08:26.492Z,51.25
2019-03-22T23:10:52.715Z,50.96
2019-03-22T23:13:18.786Z,50.73
2019-03-22T23:15:45.097Z,50.66
2019-03-22T23:18:10.895Z,51.62
2019-03-22T23:20:36.963Z,50.60
2019-03-22T23:23:03.198Z,51.27
2019-03-22T23:25:29.412Z,50.89
2019-03-22T23:27:55.274Z,51.12
2019-03-22T23:30:21.449Z,54.07
2019-03-22T23:32:47.328Z,51.74
2019-03-22T23:35:13.561Z,51.60
2019-03-22T23:37:39.627Z,51.92
2019-03-22T23:40:05.931Z,51.87
2019-03-22T23:42:31.952Z,52.06
2019-03-22T23:44:57.857Z,51.17
2019-03-22T23:47:23.978Z,51.44
2019-03-22T23:49:50.120Z,51.29
2019-03-22T23:52:16.029Z,51.43
2019-03-22T23:54:42.132Z,52.47
2019-03-22T23:57:08.203Z,52.02
2019-03-22T23:59:34.121Z,51.33
